^^
Grace C. Lehan Memorial Weather Station Historical Data
Daily Summary for June 18, 2021 Units:  English    Metric   Both
Daily Weekly Monthly Yearly
  High: Low: Average:
Temperature: 86.6 °F 52.6 °F 71.9 °F
Dew Point: 60.2 °F 48.2 °F 54.5 °F
Humidity: 88% 34% 57%
Wind Speed: 5mph 0mph 0.5mph
Wind Gust: 13mph - -
Wind- - SW
Pressure: 30.01 in 29.80 in -
Precipitation: 0.00 in    
 
 
Tabular Data for June 18, 2021
Time Temperature Dew Point Pressure Wind Wind Speed Wind Gust Humidity Rainfall Rate (Hourly) solar
00:00 62.2 °F 48.2 °F 29.97 in Calm   1 mph 60% 0.00 in 0 W/m2
00:09 61.9 °F 49.4 °F 29.97 in Calm     63.4% 0.00 in 0 W/m2
00:14 61.7 °F 49.6 °F 29.97 in Calm     64.5% 0.00 in 0 W/m2
00:19 61.4 °F 49.8 °F 29.97 in Calm     65.6% 0.00 in 0 W/m2
00:24 61.1 °F 49.9 °F 29.97 in Calm     66.5% 0.00 in 0 W/m2
00:29 60.8 °F 49.7 °F 29.97 in Calm     66.7% 0.00 in 0 W/m2
00:34 60.5 °F 49.8 °F 29.97 in Calm     67.7% 0.00 in 0 W/m2
00:39 60.3 °F 49.7 °F 29.97 in Calm     68% 0.00 in 0 W/m2
00:44 60.1 °F 49.5 °F 29.97 in Calm     68% 0.00 in 0 W/m2
00:49 59.9 °F 49.7 °F 29.98 in Calm     68.8% 0.00 in 0 W/m2
00:54 59.7 °F 49.5 °F 29.97 in Calm     69% 0.00 in 0 W/m2
00:59 59.5 °F 49.4 °F 29.97 in Calm     69% 0.00 in 0 W/m2
01:04 59.4 °F 49.2 °F 29.97 in Calm     69% 0.00 in 0 W/m2
01:09 59.3 °F 49.5 °F 29.97 in Calm     70.1% 0.00 in 0 W/m2
01:14 59.1 °F 49.5 °F 29.97 in Calm     70.3% 0.00 in 0 W/m2
01:19 59 °F 49.4 °F 29.97 in Calm     70.5% 0.00 in 0 W/m2
01:24 58.9 °F 49.2 °F 29.97 in Calm     70.2% 0.00 in 0 W/m2
01:29 58.9 °F 49.2 °F 29.97 in Calm     70% 0.00 in 0 W/m2
01:34 58.9 °F 49.2 °F 29.97 in Calm     70% 0.00 in 0 W/m2
01:39 58.9 °F 49.3 °F 29.97 in Calm     70.4% 0.00 in 0 W/m2
01:44 58.9 °F 49.6 °F 29.97 in Calm     71.4% 0.00 in 0 W/m2
01:49 58.6 °F 50 °F 29.97 in Calm     73% 0.00 in 0 W/m2
01:54 58.3 °F 49.5 °F 29.97 in Calm     72.5% 0.00 in 0 W/m2
01:59 58.1 °F 49.5 °F 29.97 in Calm     73% 0.00 in 0 W/m2
02:04 58 °F 49.5 °F 29.97 in Calm     73.3% 0.00 in 0 W/m2
02:09 58 °F 49.8 °F 29.97 in Calm     74.1% 0.00 in 0 W/m2
02:14 57.9 °F 50 °F 29.97 in Calm     75% 0.00 in 0 W/m2
02:19 57.7 °F 49.6 °F 29.97 in Calm     74.3% 0.00 in 0 W/m2
02:24 57.6 °F 49.4 °F 29.97 in Calm     74% 0.00 in 0 W/m2
02:29 57.5 °F 49.3 °F 29.97 in Calm     74% 0.00 in 0 W/m2
02:34 57.4 °F 49 °F 29.97 in Calm     73.4% 0.00 in 0 W/m2
02:39 57.4 °F 48.8 °F 29.97 in Calm     73% 0.00 in 0 W/m2
02:44 57.4 °F 49 °F 29.97 in Calm     73.6% 0.00 in 0 W/m2
02:49 57.4 °F 49.2 °F 29.97 in Calm     74% 0.00 in 0 W/m2
02:54 57.3 °F 49.1 °F 29.97 in Calm     74.1% 0.00 in 0 W/m2
02:59 57.2 °F 49.3 °F 29.97 in Calm     75% 0.00 in 0 W/m2
03:04 57 °F 49.6 °F 29.97 in Calm     76% 0.00 in 0 W/m2
03:09 56.9 °F 49.4 °F 29.97 in Calm     76% 0.00 in 0 W/m2
03:14 56.7 °F 49.6 °F 29.97 in Calm     77% 0.00 in 0 W/m2
03:19 56.5 °F 49.4 °F 29.97 in Calm     77% 0.00 in 0 W/m2
03:24 56.4 °F 49.3 °F 29.97 in Calm     77.2% 0.00 in 0 W/m2
03:29 56.2 °F 49.4 °F 29.97 in Calm     78% 0.00 in 0 W/m2
03:34 56 °F 49.5 °F 29.97 in Calm     78.7% 0.00 in 0 W/m2
03:39 55.8 °F 49.4 °F 29.97 in Calm     79% 0.00 in 0 W/m2
03:44 55.5 °F 49.2 °F 29.97 in Calm     79.3% 0.00 in 0 W/m2
03:49 55.3 °F 49.3 °F 29.98 in Calm     80% 0.00 in 0 W/m2
03:54 55.1 °F 49.1 °F 29.98 in Calm     80.1% 0.00 in 0 W/m2
03:59 55 °F 49.2 °F 29.98 in Calm     80.8% 0.00 in 0 W/m2
04:00 55 °F 48.9 °F 29.98 in Calm     80% 0.00 in 0 W/m2
04:09 54.7 °F 49 °F 29.98 in Calm     81% 0.00 in 0 W/m2
04:14 54.6 °F 48.9 °F 29.98 in Calm     81% 0.00 in 0 W/m2
04:19 54.5 °F 48.8 °F 29.98 in Calm     81% 0.00 in 0 W/m2
04:24 54.4 °F 48.7 °F 29.98 in Calm     81.1% 0.00 in 0 W/m2
04:29 54.2 °F 48.9 °F 29.98 in Calm     82% 0.00 in 0 W/m2
04:34 54.1 °F 48.8 °F 29.99 in Calm     82% 0.00 in 0 W/m2
04:39 54 °F 49 °F 29.99 in Calm     82.9% 0.00 in 0 W/m2
04:44 53.9 °F 48.9 °F 29.99 in Calm     83% 0.00 in 0 W/m2
04:49 53.8 °F 48.8 °F 29.99 in Calm     83% 0.00 in 0 W/m2
04:54 53.7 °F 48.8 °F 29.99 in Calm     83.5% 0.00 in 0 W/m2
04:59 53.5 °F 48.8 °F 30.00 in Calm     83.8% 0.00 in 0 W/m2
05:04 53.5 °F 48.8 °F 29.99 in Calm     84% 0.00 in 0 W/m2
05:09 53.3 °F 48.6 °F 30.00 in Calm     84% 0.00 in 0 W/m2
05:14 53.2 °F 48.5 °F 30.00 in Calm     84% 0.00 in 0 W/m2
05:19 53.1 °F 48.4 °F 30.00 in Calm     84% 0.00 in 0 W/m2
05:24 53.1 °F 48.6 °F 30.00 in Calm     84.7% 0.00 in 0 W/m2
05:29 53 °F 48.6 °F 30.00 in Calm     85% 0.00 in 5 W/m2
05:34 52.9 °F 48.5 °F 30.00 in Calm     85% 0.00 in 7 W/m2
05:39 52.8 °F 48.4 °F 30.00 in Calm     85% 0.00 in 9 W/m2
05:44 52.7 °F 48.3 °F 30.00 in Calm     85% 0.00 in 11 W/m2
05:49 52.6 °F 48.5 °F 30.00 in Calm     85.7% 0.00 in 14 W/m2
05:54 52.6 °F 48.5 °F 30.00 in Calm     86% 0.00 in 18 W/m2
05:59 52.6 °F 48.5 °F 30.00 in Calm     86% 0.00 in 18 W/m2
06:04 52.7 °F 48.9 °F 30.00 in Calm     86.9% 0.00 in 19 W/m2
06:09 52.8 °F 49 °F 30.00 in Calm     87% 0.00 in 19 W/m2
06:14 52.9 °F 49.2 °F 30.00 in Calm     87% 0.00 in 19 W/m2
06:19 53.1 °F 49.3 °F 29.99 in Calm     87% 0.00 in 21 W/m2
06:24 53.3 °F 49.5 °F 30.00 in Calm     87% 0.00 in 26 W/m2
06:29 53.5 °F 49.8 °F 30.00 in Calm     87.3% 0.00 in 35 W/m2
06:34 53.7 °F 50.3 °F 30.00 in Calm     88% 0.00 in 46 W/m2
06:39 54 °F 50.6 °F 30.00 in Calm     88% 0.00 in 49 W/m2
06:44 54.5 °F 51.1 °F 30.00 in Calm     88% 0.00 in 60 W/m2
06:49 55.4 °F 51.9 °F 30.00 in Calm     88% 0.00 in 67 W/m2
06:54 56.7 °F 52.8 °F 30.00 in Calm     86.7% 0.00 in 69 W/m2
06:59 58.2 °F 53.1 °F 30.00 in Calm     83.1% 0.00 in 70 W/m2
07:04 59.4 °F 53.6 °F 30.01 in Calm     80.9% 0.00 in 72 W/m2
07:09 60.7 °F 53.5 °F 30.01 in Calm     77.3% 0.00 in 74 W/m2
07:14 61.9 °F 54 °F 30.00 in Calm     75.2% 0.00 in 76 W/m2
07:19 63.1 °F 54.5 °F 30.00 in Calm     73.6% 0.00 in 77 W/m2
07:24 63.9 °F 54.6 °F 30.00 in Calm     71.8% 0.00 in 237 W/m2
07:29 64.9 °F 55.1 °F 30.00 in Calm     70.5% 0.00 in 345 W/m2
07:34 65.8 °F 55.6 °F 30.00 in Calm     69.5% 0.00 in 362 W/m2
07:39 66.7 °F 55.5 °F 30.00 in Calm     67.2% 0.00 in 380 W/m2
07:44 67.4 °F 55.5 °F 30.00 in Calm     65.7% 0.00 in 404 W/m2
07:49 68 °F 55.6 °F 30.00 in Calm     64.5% 0.00 in 422 W/m2
07:54 68.8 °F 55.8 °F 29.99 in Calm     63.3% 0.00 in 438 W/m2
07:59 69.5 °F 55.1 °F 29.99 in Calm     60.4% 0.00 in 452 W/m2
08:00 69.9 °F 54 °F 29.99 in Calm     57% 0.00 in 452 W/m2
08:09 70.9 °F 53.8 °F 29.99 in Calm     54.7% 0.00 in 483 W/m2
08:14 71.4 °F 54.1 °F 29.99 in Calm     54.2% 0.00 in 504 W/m2
08:19 71.9 °F 54 °F 29.98 in Calm     53.4% 0.00 in 520 W/m2
08:24 72.3 °F 54.3 °F 29.98 in Calm     53.2% 0.00 in 540 W/m2
08:29 72.8 °F 54.6 °F 29.98 in Calm     52.8% 0.00 in 557 W/m2
08:34 73.2 °F 55.1 °F 29.98 in Calm     53% 0.00 in 568 W/m2
08:39 73.7 °F 55.1 °F 29.98 in Calm     52.2% 0.00 in 587 W/m2
08:44 74 °F 55.6 °F 29.98 in Calm     52.7% 0.00 in 603 W/m2
08:49 74.4 °F 55.7 °F 29.98 in Calm   1 mph 52% 0.00 in 621 W/m2
08:54 74.6 °F 56 °F 29.98 in Calm   1 mph 52.2% 0.00 in 631 W/m2
08:59 75 °F 56.8 °F 29.98 in Calm   1 mph 53.1% 0.00 in 645 W/m2
09:04 75.4 °F 55.9 °F 29.98 in Calm   1 mph 50.8% 0.00 in 663 W/m2
09:09 75.6 °F 56.4 °F 29.98 in Calm   2 mph 51.4% 0.00 in 666 W/m2
09:14 76 °F 56.6 °F 29.98 in Calm   2 mph 51.1% 0.00 in 684 W/m2
09:19 76.4 °F 55.6 °F 29.98 in Calm   2 mph 48.5% 0.00 in 693 W/m2
09:24 76.6 °F 55.4 °F 29.98 in Calm   2 mph 47.8% 0.00 in 698 W/m2
09:29 76.8 °F 55.7 °F 29.97 in Calm   2 mph 48% 0.00 in 693 W/m2
09:34 77.1 °F 55.8 °F 29.97 in Calm   2 mph 47.7% 0.00 in 696 W/m2
09:39 77.4 °F 55.9 °F 29.97 in Calm     47.6% 0.00 in 701 W/m2
09:44 77.6 °F 56.7 °F 29.97 in Calm   1 mph 48.6% 0.00 in 691 W/m2
09:49 77.9 °F 57.2 °F 29.97 in Calm   1 mph 49% 0.00 in 717 W/m2
09:54 78 °F 55.9 °F 29.97 in Calm   1 mph 46.5% 0.00 in 691 W/m2
09:59 78.2 °F 56.5 °F 29.97 in Calm   2 mph 47.3% 0.00 in 645 W/m2
10:04 78.4 °F 56.5 °F 29.97 in Calm   2 mph 46.9% 0.00 in 747 W/m2
10:09 78.7 °F 57 °F 29.97 in Calm   2 mph 47.3% 0.00 in 696 W/m2
10:14 79 °F 56.7 °F 29.97 in WNW 0.2 mph 4 mph 46.4% 0.00 in 694 W/m2
10:19 79.3 °F 55.8 °F 29.97 in WNW 0.1 mph 4 mph 44.4% 0.00 in 657 W/m2
10:24 79.5 °F 56.6 °F 29.96 in WSW 0.5 mph 7 mph 45.5% 0.00 in 659 W/m2
10:29 79.7 °F 55.4 °F 29.96 in WSW 0.4 mph 7 mph 43.2% 0.00 in 740 W/m2
10:34 80 °F 55.7 °F 29.95 in Calm   7 mph 43.3% 0.00 in 789 W/m2
10:39 80.3 °F 55.1 °F 29.95 in SW 0.3 mph 5 mph 42% 0.00 in 803 W/m2
10:44 80.4 °F 56 °F 29.95 in West 0.6 mph 6 mph 43.2% 0.00 in 789 W/m2
10:49 80.5 °F 56.1 °F 29.95 in West 0.5 mph 6 mph 43.2% 0.00 in 784 W/m2
10:54 80.7 °F 55.9 °F 29.95 in WSW 1.1 mph 6 mph 42.6% 0.00 in 837 W/m2
10:59 81.2 °F 55.6 °F 29.95 in SW 1.5 mph 6 mph 41.4% 0.00 in 840 W/m2
11:04 81.7 °F 55.6 °F 29.94 in SW 1.8 mph 6 mph 40.9% 0.00 in 854 W/m2
11:09 82 °F 55.7 °F 29.94 in SW 1.7 mph 12 mph 40.6% 0.00 in 932 W/m2
11:14 82.4 °F 55.6 °F 29.94 in West 1.3 mph 12 mph 39.8% 0.00 in 940 W/m2
11:19 82.9 °F 55 °F 29.94 in West 0.5 mph 12 mph 38.4% 0.00 in 951 W/m2
11:24 83.1 °F 55.7 °F 29.94 in West 0.4 mph 12 mph 39.2% 0.00 in 951 W/m2
11:29 83.3 °F 55.3 °F 29.94 in West 0.9 mph 12 mph 38.3% 0.00 in 953 W/m2
11:34 83.7 °F 56 °F 29.94 in West 0.3 mph 12 mph 38.9% 0.00 in 954 W/m2
11:39 84 °F 56.3 °F 29.94 in SW 1.3 mph 7 mph 38.8% 0.00 in 958 W/m2
11:44 84.4 °F 56.1 °F 29.94 in Calm   7 mph 38.1% 0.00 in 962 W/m2
11:49 84.8 °F 56.7 °F 29.94 in West 1.3 mph 11 mph 38.4% 0.00 in 972 W/m2
11:54 85.1 °F 54.6 °F 29.93 in WSW 0.7 mph 11 mph 35.3% 0.00 in 976 W/m2
11:59 85.2 °F 54.5 °F 29.93 in WSW 1.7 mph 11 mph 35.1% 0.00 in 981 W/m2
12:04 85.1 °F 55.9 °F 29.93 in Calm     37% 0.00 in 988 W/m2
12:09 85 °F 54.7 °F 29.93 in SW 1.5 mph 6 mph 35.4% 0.00 in 990 W/m2
12:14 85 °F 54 °F 29.93 in WSW 1.6 mph 9 mph 34.6% 0.00 in 988 W/m2
12:19 85.1 °F 54.1 °F 29.92 in WSW 1.7 mph 10 mph 34.6% 0.00 in 991 W/m2
12:24 85 °F 53.7 °F 29.92 in WSW 0.5 mph 10 mph 34.2% 0.00 in 993 W/m2
12:29 85 °F 54.1 °F 29.92 in SW 0.5 mph 10 mph 34.8% 0.00 in 990 W/m2
12:34 85 °F 54.2 °F 29.92 in SW 1.1 mph 11 mph 34.9% 0.00 in 997 W/m2
12:39 85 °F 54.6 °F 29.92 in SW 1 mph 11 mph 35.3% 0.00 in 997 W/m2
12:44 85.2 °F 54.4 °F 29.92 in WSW 1.9 mph 13 mph 35% 0.00 in 997 W/m2
12:49 85.2 °F 53.9 °F 29.92 in WSW 4 mph 13 mph 34.2% 0.00 in 998 W/m2
12:54 85.2 °F 54 °F 29.92 in SW 1.3 mph 13 mph 34.4% 0.00 in 1000 W/m2
12:59 85.1 °F 54.9 °F 29.92 in SW 1 mph 13 mph 35.8% 0.00 in 1000 W/m2
13:04 85.2 °F 55.2 °F 29.92 in West 1.4 mph 13 mph 35.9% 0.00 in 998 W/m2
13:09 85.4 °F 55.6 °F 29.92 in WSW 2 mph 7 mph 36.2% 0.00 in 1000 W/m2
13:14 85.4 °F 55.1 °F 29.92 in WSW 0.7 mph 7 mph 35.5% 0.00 in 998 W/m2
13:19 85.5 °F 55.9 °F 29.92 in WSW 1.3 mph 7 mph 36.5% 0.00 in 997 W/m2
13:24 85.9 °F 55.9 °F 29.92 in WSW 2.7 mph 12 mph 36.1% 0.00 in 995 W/m2
13:29 86.2 °F 55.5 °F 29.92 in WSW 1.4 mph 12 mph 35.2% 0.00 in 995 W/m2
13:34 86.4 °F 55.2 °F 29.92 in WNW 1 mph 12 mph 34.5% 0.00 in 995 W/m2
13:39 86.5 °F 55.2 °F 29.92 in South 1.1 mph 8 mph 34.5% 0.00 in 988 W/m2
13:44 86.3 °F 54.6 °F 29.91 in SSE 0.2 mph 8 mph 34% 0.00 in 981 W/m2
13:49 86.1 °F 55.7 °F 29.91 in SW 1.7 mph 8 mph 35.5% 0.00 in 983 W/m2
13:54 86.1 °F 55.8 °F 29.91 in WSW 1.6 mph 8 mph 35.6% 0.00 in 979 W/m2
13:59 86.3 °F 56 °F 29.91 in WSW 2 mph 8 mph 35.7% 0.00 in 979 W/m2
14:04 86.3 °F 56.1 °F 29.91 in SW 0.7 mph 8 mph 35.8% 0.00 in 969 W/m2
14:09 86.2 °F 55.6 °F 29.91 in SW 1.6 mph 6 mph 35.3% 0.00 in 963 W/m2
14:14 86.2 °F 55.8 °F 29.90 in WSW 2 mph 6 mph 35.6% 0.00 in 960 W/m2
14:19 86.1 °F 56.1 °F 29.90 in WSW 1.3 mph 6 mph 36% 0.00 in 953 W/m2
14:24 86 °F 55.5 °F 29.90 in SW 1.3 mph 6 mph 35.3% 0.00 in 949 W/m2
14:29 85.9 °F 55.7 °F 29.89 in WSW 0.6 mph 6 mph 35.9% 0.00 in 933 W/m2
14:34 85.8 °F 56.1 °F 29.89 in WSW 0.3 mph 6 mph 36.3% 0.00 in 935 W/m2
14:39 85.9 °F 56.4 °F 29.89 in West 0.9 mph 7 mph 36.7% 0.00 in 930 W/m2
14:44 86 °F 56.6 °F 29.88 in WSW 0.6 mph 7 mph 36.8% 0.00 in 928 W/m2
14:49 86.2 °F 57.4 °F 29.88 in West 1.4 mph 7 mph 37.7% 0.00 in 932 W/m2
14:54 86.6 °F 57.4 °F 29.88 in West 0.8 mph 7 mph 37.3% 0.00 in 861 W/m2
14:59 86.5 °F 56.2 °F 29.88 in SW 2 mph 9 mph 35.7% 0.00 in 853 W/m2
15:04 86.3 °F 56.4 °F 29.88 in SSW 0.4 mph 9 mph 36.2% 0.00 in 612 W/m2
15:09 86 °F 56.3 °F 29.88 in SW 1.9 mph 7 mph 36.3% 0.00 in 803 W/m2
15:14 85.9 °F 56.4 °F 29.88 in WSW 1.9 mph 7 mph 36.7% 0.00 in 861 W/m2
15:19 85.8 °F 56.8 °F 29.87 in SW 1.6 mph 7 mph 37.3% 0.00 in 861 W/m2
15:24 86 °F 56.8 °F 29.87 in SW 2.1 mph 9 mph 37.2% 0.00 in 744 W/m2
15:28 86 °F 57.1 °F 29.87 in SW 1.6 mph 9 mph 37.5% 0.00 in 582 W/m2
15:34 86 °F 56.6 °F 29.87 in WSW 2.7 mph 9 mph 36.9% 0.00 in 520 W/m2
15:39 85.8 °F 56.4 °F 29.87 in WSW 1.8 mph 7 mph 36.9% 0.00 in 540 W/m2
15:44 85.5 °F 57.4 °F 29.87 in SW 1.7 mph 7 mph 38.5% 0.00 in 561 W/m2
15:48 85.3 °F 56.5 °F 29.87 in SW 2.2 mph 7 mph 37.4% 0.00 in 570 W/m2
16:04 84.9 °F 57.9 °F 29.87 in SW 5 mph 5 mph 40% 0.00 in 638 W/m2
16:09 85 °F 57.2 °F 29.87 in SW 2.3 mph 9 mph 38.9% 0.00 in 638 W/m2
16:14 85 °F 56.8 °F 29.87 in SW 1.3 mph 9 mph 38.3% 0.00 in 513 W/m2
16:19 84.9 °F 57.2 °F 29.87 in WSW 2.8 mph 10 mph 38.9% 0.00 in 151 W/m2
16:24 84.7 °F 56.4 °F 29.87 in SSW 1.7 mph 10 mph 38.1% 0.00 in 156 W/m2
16:29 84.3 °F 56.4 °F 29.87 in SW 2.7 mph 10 mph 38.6% 0.00 in 172 W/m2
16:34 84 °F 57.6 °F 29.87 in SW 0.3 mph 10 mph 40.8% 0.00 in 185 W/m2
16:39 83.8 °F 58.2 °F 29.87 in SW 1.7 mph 8 mph 41.8% 0.00 in 190 W/m2
16:44 83.8 °F 58.1 °F 29.86 in WSW 2.1 mph 8 mph 41.7% 0.00 in 190 W/m2
16:49 83.8 °F 58.3 °F 29.86 in WSW 1.2 mph 8 mph 42% 0.00 in 174 W/m2
16:54 84 °F 57.7 °F 29.86 in WSW 1.6 mph 8 mph 40.7% 0.00 in 148 W/m2
16:59 84.2 °F 58 °F 29.86 in SW 1.4 mph 8 mph 41.2% 0.00 in 123 W/m2
17:04 84.1 °F 58.3 °F 29.85 in SW 2 mph 8 mph 41.6% 0.00 in 125 W/m2
17:09 84 °F 57.2 °F 29.85 in SW 1.4 mph 7 mph 40.1% 0.00 in 125 W/m2
17:14 83.8 °F 57.2 °F 29.85 in SW 0.6 mph 7 mph 40.4% 0.00 in 127 W/m2
17:19 83.5 °F 57.4 °F 29.85 in SW 0.5 mph 7 mph 41.2% 0.00 in 132 W/m2
17:24 83.2 °F 57.5 °F 29.85 in SW 0.7 mph 7 mph 41.5% 0.00 in 134 W/m2
17:29 82.9 °F 57.2 °F 29.85 in WSW 0.5 mph 7 mph 41.5% 0.00 in 127 W/m2
17:34 82.8 °F 57.4 °F 29.85 in WSW 1.3 mph 7 mph 42.1% 0.00 in 114 W/m2
17:39 82.5 °F 57.1 °F 29.84 in South 0.3 mph 6 mph 42% 0.00 in 105 W/m2
17:44 82.2 °F 56.5 °F 29.84 in South 0.3 mph 6 mph 41.5% 0.00 in 98 W/m2
17:49 81.9 °F 56.6 °F 29.84 in SSW 0.3 mph 6 mph 42% 0.00 in 90 W/m2
17:54 81.8 °F 56.5 °F 29.83 in SSW 0.6 mph 6 mph 42% 0.00 in 83 W/m2
17:59 81.4 °F 55.5 °F 29.83 in SSW 1.4 mph 6 mph 41% 0.00 in 77 W/m2
18:04 81 °F 55.4 °F 29.83 in South 0.7 mph 6 mph 41.5% 0.00 in 72 W/m2
18:09 80.5 °F 56.1 °F 29.83 in SSW 1.4 mph 5 mph 43.2% 0.00 in 72 W/m2
18:14 80.1 °F 56.6 °F 29.83 in SSW 1 mph 5 mph 44.6% 0.00 in 79 W/m2
18:19 79.6 °F 56.8 °F 29.83 in SSW 1.4 mph 5 mph 45.5% 0.00 in 79 W/m2
18:24 79.3 °F 57 °F 29.83 in SW 1.1 mph 5 mph 46.5% 0.00 in 72 W/m2
18:29 78.9 °F 57 °F 29.83 in SSW 2.8 mph 9 mph 47% 0.00 in 63 W/m2
18:34 78.6 °F 56.5 °F 29.83 in SW 2.3 mph 9 mph 46.7% 0.00 in 60 W/m2
18:39 78.3 °F 56.5 °F 29.83 in SW 1.3 mph 8 mph 47.1% 0.00 in 58 W/m2
18:44 78.1 °F 56.7 °F 29.83 in SW 1.5 mph 9 mph 47.8% 0.00 in 49 W/m2
18:49 77.9 °F 56.5 °F 29.83 in SW 1.2 mph 9 mph 47.7% 0.00 in 44 W/m2
18:54 77.7 °F 56.6 °F 29.83 in SW 0.3 mph 9 mph 48.2% 0.00 in 39 W/m2
18:59 77.6 °F 56.7 °F 29.83 in SSW 0.8 mph 9 mph 48.7% 0.00 in 37 W/m2
19:04 77.4 °F 56.4 °F 29.83 in SW 1.1 mph 9 mph 48.5% 0.00 in 39 W/m2
19:09 77.2 °F 56.4 °F 29.83 in SSW 0.9 mph 6 mph 48.6% 0.00 in 39 W/m2
19:14 77 °F 56.5 °F 29.82 in SSW 0.7 mph 6 mph 49.2% 0.00 in 35 W/m2
19:19 76.9 °F 56.8 °F 29.82 in SSW 0.4 mph 6 mph 50% 0.00 in 28 W/m2
19:24 76.7 °F 56.6 °F 29.82 in South 0.5 mph 6 mph 50% 0.00 in 25 W/m2
19:29 76.5 °F 56.6 °F 29.82 in South 0.1 mph 6 mph 50.2% 0.00 in 21 W/m2
19:34 76.4 °F 56.9 °F 29.82 in South 0.3 mph 6 mph 51% 0.00 in 19 W/m2
19:39 76.2 °F 56.7 °F 29.82 in South 0.1 mph 5 mph 51% 0.00 in 21 W/m2
19:44 76 °F 56.7 °F 29.82 in South 0.6 mph 5 mph 51.2% 0.00 in 21 W/m2
19:49 75.8 °F 56.4 °F 29.82 in South 0.3 mph 5 mph 51% 0.00 in 19 W/m2
19:54 75.7 °F 56.3 °F 29.82 in SSW 0.4 mph 5 mph 51% 0.00 in 16 W/m2
19:59 75.6 °F 56.2 °F 29.82 in SSW 0.5 mph 5 mph 51% 0.00 in 12 W/m2
20:00 75.5 °F 56.1 °F 29.82 in Calm   5 mph 51% 0.00 in 9 W/m2
20:09 75.3 °F 56 °F 29.82 in SW 0.2 mph 2 mph 51.2% 0.00 in 9 W/m2
20:14 75.2 °F 56.3 °F 29.82 in SW 0.1 mph 2 mph 51.8% 0.00 in 7 W/m2
20:19 75.1 °F 56.3 °F 29.81 in SW 0.7 mph 4 mph 52% 0.00 in 5 W/m2
20:24 74.9 °F 56.3 °F 29.81 in SW 0.4 mph 4 mph 52.4% 0.00 in 0 W/m2
20:29 74.8 °F 56.5 °F 29.82 in SW 0.2 mph 4 mph 53% 0.00 in 0 W/m2
20:34 74.6 °F 56.8 °F 29.81 in SW 0.2 mph 4 mph 53.9% 0.00 in 0 W/m2
20:39 74.4 °F 56.7 °F 29.82 in SW 0.1 mph 4 mph 54% 0.00 in 0 W/m2
20:44 74.3 °F 57 °F 29.82 in SW 0.6 mph 4 mph 54.9% 0.00 in 0 W/m2
20:49 74.1 °F 56.9 °F 29.82 in SW 0.1 mph 4 mph 55% 0.00 in 0 W/m2
20:54 73.9 °F 57.1 °F 29.83 in SW 0.5 mph 5 mph 55.7% 0.00 in 0 W/m2
20:59 73.8 °F 57.5 °F 29.83 in SW 0.1 mph 5 mph 56.6% 0.00 in 0 W/m2
21:04 73.7 °F 57.5 °F 29.83 in SW 0.2 mph 5 mph 57% 0.00 in 0 W/m2
21:09 73.6 °F 57.7 °F 29.82 in Calm   3 mph 57.6% 0.00 in 0 W/m2
21:14 73.4 °F 57.8 °F 29.83 in Calm   3 mph 58.1% 0.00 in 0 W/m2
21:19 73.3 °F 58.1 °F 29.83 in SW 0.2 mph 3 mph 58.9% 0.00 in 0 W/m2
21:24 73.2 °F 58.1 °F 29.83 in SW 0.1 mph 3 mph 59.3% 0.00 in 0 W/m2
21:29 73.1 °F 58.4 °F 29.83 in Calm   3 mph 60% 0.00 in 0 W/m2
21:34 72.9 °F 58.3 °F 29.83 in Calm   3 mph 60% 0.00 in 0 W/m2
21:39 72.8 °F 58.6 °F 29.83 in Calm     60.9% 0.00 in 0 W/m2
21:44 72.7 °F 58.7 °F 29.83 in Calm     61.4% 0.00 in 0 W/m2
21:49 72.6 °F 58.8 °F 29.83 in Calm     61.8% 0.00 in 0 W/m2
21:54 72.5 °F 58.8 °F 29.83 in Calm     62% 0.00 in 0 W/m2
21:59 72.4 °F 58.7 °F 29.83 in Calm     62% 0.00 in 0 W/m2
22:04 72.4 °F 58.8 °F 29.84 in Calm     62.4% 0.00 in 0 W/m2
22:09 72.3 °F 59 °F 29.84 in Calm     63% 0.00 in 0 W/m2
22:14 72.2 °F 59 °F 29.83 in Calm     63.2% 0.00 in 0 W/m2
22:19 72.2 °F 59.3 °F 29.83 in Calm     64% 0.00 in 0 W/m2
22:24 72.1 °F 59.4 °F 29.83 in Calm     64.3% 0.00 in 0 W/m2
22:29 72.1 °F 59.7 °F 29.83 in Calm     65% 0.00 in 0 W/m2
22:34 72 °F 59.6 °F 29.83 in Calm     65% 0.00 in 0 W/m2
22:39 71.9 °F 59.7 °F 29.83 in Calm     65.3% 0.00 in 0 W/m2
22:44 71.9 °F 59.9 °F 29.83 in Calm     66% 0.00 in 0 W/m2
22:49 71.8 °F 59.8 °F 29.82 in Calm     66% 0.00 in 0 W/m2
22:54 71.7 °F 59.7 °F 29.82 in Calm   1 mph 66% 0.00 in 0 W/m2
22:59 71.5 °F 60 °F 29.82 in Calm   1 mph 67% 0.00 in 0 W/m2
23:04 71.4 °F 59.9 °F 29.82 in Calm   1 mph 67% 0.00 in 0 W/m2
23:09 71.3 °F 60.1 °F 29.82 in Calm     67.8% 0.00 in 0 W/m2
23:14 71.2 °F 60.1 °F 29.82 in Calm     68% 0.00 in 0 W/m2
23:19 71.1 °F 60.2 °F 29.82 in Calm     68.6% 0.00 in 0 W/m2
23:24 71 °F 60.2 °F 29.82 in Calm     68.7% 0.00 in 0 W/m2
23:29 70.9 °F 60.2 °F 29.81 in SW 0.1 mph 2 mph 68.8% 0.00 in 0 W/m2
23:34 70.9 °F 60.2 °F 29.81 in Calm   2 mph 68.9% 0.00 in 0 W/m2
23:39 70.9 °F 60 °F 29.81 in Calm   1 mph 68.6% 0.00 in 0 W/m2
23:44 70.8 °F 60.1 °F 29.81 in Calm   1 mph 69% 0.00 in 0 W/m2
23:49 70.8 °F 60.1 °F 29.81 in Calm   1 mph 69% 0.00 in 0 W/m2
23:54 70.7 °F 60 °F 29.80 in Calm   1 mph 69% 0.00 in 0 W/m2
23:59 70.6 °F 60 °F 29.80 in Calm   1 mph 69% 0.00 in 0 W/m2
Hartford County Weather
Compliments of Weather Underground - 4 mb